Time;durP1;ratioP1;P1;durP2;ratioP2;P2;SDS_P1;SDS_P2;PMS_P1;PMS_P2;Temp;Humidity;BMP_temperature;BMP_pressure;BME280_temperature;BME280_humidity;BME280_pressure;Samples;Min_cycle;Max_cycle;Signal;HPM_P1;HPM_P2
2023/08/03 00:00:20;;;;;;;3.03;0.80;;;16.60;99.90;;;;;;5072361;28;20093;-50
2023/08/03 00:02:46;;;;;;;1.58;0.50;;;16.60;99.90;;;;;;5072360;28;20039;-50
2023/08/03 00:05:16;;;;;;;3.17;0.82;;;16.60;99.90;;;;;;5072148;28;20029;-51
2023/08/03 00:07:44;;;;;;;3.47;0.70;;;16.60;99.90;;;;;;5072137;28;20036;-50
2023/08/03 00:10:10;;;;;;;2.10;0.93;;;16.50;99.90;;;;;;5072140;28;20125;-50
2023/08/03 00:12:36;;;;;;;1.58;0.55;;;16.40;99.90;;;;;;5071788;28;20024;-49
2023/08/03 00:15:02;;;;;;;2.33;0.80;;;16.40;99.90;;;;;;5071903;28;20024;-52
2023/08/03 00:17:27;;;;;;;2.75;0.70;;;16.50;99.90;;;;;;5072131;28;20024;-49
2023/08/03 00:19:53;;;;;;;0.80;0.50;;;16.60;99.90;;;;;;5071962;28;20515;-50
2023/08/03 00:22:18;;;;;;;4.72;0.70;;;16.60;99.90;;;;;;5071622;28;20032;-52
2023/08/03 00:24:44;;;;;;;1.92;0.60;;;16.60;99.90;;;;;;5071556;28;20091;-52
2023/08/03 00:27:10;;;;;;;2.00;0.73;;;16.60;99.90;;;;;;5071767;28;20608;-50
2023/08/03 00:29:35;;;;;;;2.00;0.60;;;16.60;99.90;;;;;;5071615;28;20035;-49
2023/08/03 00:32:01;;;;;;;1.40;0.65;;;16.70;99.90;;;;;;5070455;28;20554;-47
2023/08/03 00:34:30;;;;;;;1.15;0.50;;;16.60;99.90;;;;;;5071387;28;20496;-50
2023/08/03 00:36:56;;;;;;;1.42;0.50;;;16.70;99.90;;;;;;5070286;28;20047;-50
2023/08/03 00:39:21;;;;;;;1.95;0.65;;;16.70;99.90;;;;;;5070168;28;20495;-48
2023/08/03 00:41:47;;;;;;;3.40;0.85;;;16.70;99.90;;;;;;5069968;28;20089;-50
2023/08/03 00:44:13;;;;;;;2.78;0.70;;;16.70;99.90;;;;;;5069888;28;20040;-49
2023/08/03 00:46:40;;;;;;;4.57;0.80;;;16.70;99.90;;;;;;5070457;28;20512;-48
2023/08/03 00:49:06;;;;;;;7.03;1.30;;;16.60;99.90;;;;;;5071486;28;20043;-47
2023/08/03 00:51:33;;;;;;;7.63;2.25;;;16.70;99.90;;;;;;5069852;28;20035;-48
2023/08/03 00:53:59;;;;;;;7.05;2.13;;;16.70;99.90;;;;;;5069863;28;20033;-48
2023/08/03 00:56:24;;;;;;;9.27;2.53;;;16.70;99.90;;;;;;5069787;28;20025;-48
2023/08/03 00:58:50;;;;;;;5.55;2.10;;;16.70;99.90;;;;;;5071211;28;20032;-52
2023/08/03 01:01:16;;;;;;;3.35;1.52;;;16.70;99.90;;;;;;5069895;28;20620;-49
2023/08/03 01:03:41;;;;;;;3.92;1.80;;;16.70;99.90;;;;;;5069603;28;20033;-50
2023/08/03 01:06:07;;;;;;;4.15;1.95;;;16.70;99.90;;;;;;5071036;28;20035;-51
2023/08/03 01:08:33;;;;;;;4.63;1.23;;;16.60;99.90;;;;;;5069866;28;20033;-49
2023/08/03 01:10:59;;;;;;;4.18;1.85;;;16.60;99.90;;;;;;5071079;28;20299;-52
2023/08/03 01:13:24;;;;;;;4.63;2.05;;;16.60;99.90;;;;;;5070780;28;20103;-52
2023/08/03 01:15:52;;;;;;;4.72;1.70;;;16.50;99.90;;;;;;5069575;28;20039;-53
2023/08/03 01:18:18;;;;;;;4.07;1.70;;;16.40;99.90;;;;;;5071074;28;20408;-53
2023/08/03 01:20:44;;;;;;;5.25;2.20;;;16.40;99.90;;;;;;5069679;28;20043;-53
2023/08/03 01:23:10;;;;;;;4.13;2.22;;;16.40;99.90;;;;;;5069483;28;20126;-51
2023/08/03 01:25:36;;;;;;;5.68;2.70;;;16.40;99.90;;;;;;5069693;28;20039;-52
2023/08/03 01:28:06;;;;;;;8.63;2.58;;;16.40;99.90;;;;;;5069737;28;20068;-50
2023/08/03 01:30:32;;;;;;;9.45;2.65;;;16.40;99.90;;;;;;5069816;28;20107;-53
2023/08/03 01:32:58;;;;;;;5.40;2.08;;;16.50;99.90;;;;;;5069437;28;20140;-52
2023/08/03 01:35:24;;;;;;;4.18;1.95;;;16.50;99.90;;;;;;5069666;28;20051;-52
2023/08/03 01:37:50;;;;;;;3.75;1.60;;;16.50;99.90;;;;;;5071012;28;20040;-51
2023/08/03 01:40:17;;;;;;;6.32;1.83;;;16.50;99.90;;;;;;5069617;28;20039;-53
2023/08/03 01:42:44;;;;;;;7.15;2.47;;;16.50;99.90;;;;;;5052655;28;20028;-53
2023/08/03 01:45:11;;;;;;;4.03;1.90;;;16.50;99.90;;;;;;5070543;28;20025;-50
2023/08/03 01:47:37;;;;;;;3.95;1.52;;;16.60;99.90;;;;;;5069285;28;20622;-52
2023/08/03 01:50:03;;;;;;;4.07;1.30;;;16.60;99.90;;;;;;5069374;28;20025;-52
2023/08/03 01:52:29;;;;;;;5.95;2.03;;;16.60;99.90;;;;;;5069114;28;20021;-54
2023/08/03 01:54:54;;;;;;;3.35;1.33;;;16.60;99.90;;;;;;5069059;28;20118;-50
2023/08/03 01:57:20;;;;;;;3.95;1.20;;;16.60;99.90;;;;;;5069542;28;20060;-50
2023/08/03 01:59:45;;;;;;;3.72;1.52;;;16.60;99.90;;;;;;5073370;28;20064;-50
2023/08/03 02:02:14;;;;;;;2.15;1.00;;;16.60;99.90;;;;;;5073384;28;20219;-51
2023/08/03 02:04:40;;;;;;;3.25;1.25;;;16.60;99.90;;;;;;5074406;28;20108;-49
2023/08/03 02:07:14;;;;;;;5.35;1.70;;;16.60;99.90;;;;;;5073243;28;20056;-53
2023/08/03 02:09:40;;;;;;;5.25;1.30;;;16.70;99.90;;;;;;5074765;28;20036;-51
2023/08/03 02:12:06;;;;;;;3.25;1.70;;;16.70;99.90;;;;;;5072954;28;20043;-51
2023/08/03 02:14:31;;;;;;;1.85;1.00;;;16.70;99.90;;;;;;5072802;28;20025;-52
2023/08/03 02:16:57;;;;;;;1.95;1.17;;;16.80;99.90;;;;;;5072968;28;20389;-47
2023/08/03 02:19:23;;;;;;;3.80;1.20;;;16.80;99.90;;;;;;5073025;28;20036;-53
2023/08/03 02:21:48;;;;;;;3.38;1.60;;;16.80;99.90;;;;;;5072793;28;20028;-51
2023/08/03 02:24:15;;;;;;;4.05;1.38;;;16.80;99.90;;;;;;5072571;28;20108;-52
2023/08/03 02:26:40;;;;;;;3.33;1.23;;;16.80;99.90;;;;;;5074120;28;20037;-48
2023/08/03 02:29:07;;;;;;;8.18;1.83;;;16.80;99.90;;;;;;5073947;28;20095;-51
2023/08/03 02:31:33;;;;;;;5.85;1.52;;;16.80;99.90;;;;;;5072390;28;20488;-52
2023/08/03 02:33:58;;;;;;;2.35;1.52;;;16.80;99.90;;;;;;5072654;28;20392;-50
2023/08/03 02:36:32;;;;;;;5.40;1.85;;;16.90;99.90;;;;;;5056812;28;20107;-51
2023/08/03 02:39:03;;;;;;;4.75;1.90;;;16.90;99.90;;;;;;5072620;28;20032;-49
2023/08/03 02:41:31;;;;;;;5.00;2.17;;;16.90;99.90;;;;;;5073692;28;20027;-49
2023/08/03 02:43:56;;;;;;;8.73;2.35;;;16.80;99.90;;;;;;5073672;28;20063;-50
2023/08/03 02:46:27;;;;;;;6.28;2.20;;;16.80;99.90;;;;;;5072302;28;20032;-53
2023/08/03 02:48:53;;;;;;;6.93;2.53;;;16.80;99.90;;;;;;5072432;28;20063;-49
2023/08/03 02:51:22;;;;;;;7.13;2.17;;;16.80;99.90;;;;;;5072218;28;20033;-52
2023/08/03 02:53:48;;;;;;;5.03;2.25;;;16.80;99.90;;;;;;5073878;28;20384;-52
2023/08/03 02:56:13;;;;;;;7.47;2.33;;;16.80;99.90;;;;;;5072051;28;20401;-52
2023/08/03 02:58:45;;;;;;;9.15;2.50;;;16.80;99.90;;;;;;5072247;28;20031;-51
2023/08/03 03:01:19;;;;;;;6.78;2.22;;;16.80;99.90;;;;;;5072067;28;20033;-51
2023/08/03 03:03:46;;;;;;;6.32;2.22;;;16.80;99.90;;;;;;5072275;28;20481;-53
2023/08/03 03:06:12;;;;;;;12.38;2.33;;;16.80;99.90;;;;;;5071818;28;20033;-50
2023/08/03 03:08:38;;;;;;;4.25;1.50;;;16.80;99.90;;;;;;5071694;28;20074;-52
2023/08/03 03:11:05;;;;;;;3.80;1.63;;;16.80;99.90;;;;;;5071033;28;20161;-51
2023/08/03 03:13:31;;;;;;;6.07;1.50;;;16.80;99.90;;;;;;5073047;28;20061;-53
2023/08/03 03:15:56;;;;;;;5.40;1.67;;;16.80;99.90;;;;;;5073097;28;20029;-51
2023/08/03 03:18:23;;;;;;;4.88;1.48;;;16.80;99.90;;;;;;5071855;28;20106;-54
2023/08/03 03:20:48;;;;;;;3.17;1.10;;;16.80;99.90;;;;;;5071798;28;20075;-52
2023/08/03 03:23:14;;;;;;;6.75;1.80;;;16.90;99.90;;;;;;5072995;28;20107;-49
2023/08/03 03:25:40;;;;;;;3.97;0.90;;;16.80;99.90;;;;;;5072796;28;20481;-50
2023/08/03 03:28:06;;;;;;;3.83;1.33;;;16.80;99.90;;;;;;5071593;28;20115;-53
2023/08/03 03:30:35;;;;;;;5.45;1.17;;;16.80;99.90;;;;;;5071524;28;20036;-51
2023/08/03 03:33:01;;;;;;;3.15;1.20;;;16.80;99.90;;;;;;5071327;28;20035;-49
2023/08/03 03:35:27;;;;;;;3.38;1.13;;;16.80;99.90;;;;;;5072657;28;20040;-49
2023/08/03 03:37:53;;;;;;;3.75;1.00;;;16.80;99.90;;;;;;5071439;28;20028;-49
2023/08/03 03:40:23;;;;;;;2.92;0.77;;;16.80;99.90;;;;;;5071559;28;20377;-48
2023/08/03 03:42:49;;;;;;;2.35;0.70;;;16.80;99.90;;;;;;5071133;28;20082;-50
2023/08/03 03:45:16;;;;;;;1.55;0.90;;;16.90;99.90;;;;;;5071253;28;20037;-48
2023/08/03 03:47:42;;;;;;;1.85;0.80;;;16.90;99.90;;;;;;5072707;28;20105;-49
2023/08/03 03:50:09;;;;;;;2.47;1.05;;;16.90;99.90;;;;;;5071160;28;20392;-49
2023/08/03 03:52:35;;;;;;;1.90;0.68;;;16.90;99.90;;;;;;5070912;28;20131;-50
2023/08/03 03:55:00;;;;;;;7.47;0.80;;;16.90;99.90;;;;;;5071034;28;20036;-49
2023/08/03 03:57:26;;;;;;;2.65;0.85;;;16.90;99.90;;;;;;5071191;28;20045;-49
2023/08/03 03:59:52;;;;;;;3.25;0.90;;;16.90;99.90;;;;;;5071132;28;20064;-49
2023/08/03 04:02:18;;;;;;;2.75;0.68;;;16.90;99.90;;;;;;5071018;28;20116;-49
2023/08/03 04:04:44;;;;;;;4.72;0.90;;;16.90;99.90;;;;;;5070717;28;20112;-51
2023/08/03 04:07:10;;;;;;;2.63;0.70;;;17.00;99.90;;;;;;5072261;28;20055;-48
2023/08/03 04:09:35;;;;;;;2.30;0.75;;;17.00;99.90;;;;;;5070932;28;20252;-49
2023/08/03 04:12:01;;;;;;;3.60;1.20;;;17.00;99.90;;;;;;5072033;28;20028;-49
2023/08/03 04:14:27;;;;;;;2.60;0.95;;;17.00;99.90;;;;;;5070815;28;20025;-49
2023/08/03 04:16:52;;;;;;;3.33;0.55;;;17.10;99.90;;;;;;5070900;28;20028;-49
2023/08/03 04:19:18;;;;;;;1.17;0.77;;;17.10;99.90;;;;;;5070655;28;20396;-50
2023/08/03 04:21:44;;;;;;;3.28;0.70;;;17.10;99.90;;;;;;5071500;28;20079;-52
2023/08/03 04:24:10;;;;;;;2.85;0.57;;;17.10;99.90;;;;;;5070544;28;20036;-51
2023/08/03 04:26:36;;;;;;;1.92;0.65;;;17.10;99.90;;;;;;5070752;28;20268;-51
2023/08/03 04:29:04;;;;;;;3.28;0.70;;;17.10;99.90;;;;;;5070538;28;20044;-48
2023/08/03 04:31:31;;;;;;;2.22;0.90;;;17.10;99.90;;;;;;5070368;28;20037;-52
2023/08/03 04:33:57;;;;;;;1.23;0.70;;;17.10;99.90;;;;;;5070200;28;20477;-52
2023/08/03 04:36:25;;;;;;;4.68;0.90;;;17.20;99.90;;;;;;5070078;28;20115;-50
2023/08/03 04:38:51;;;;;;;3.35;1.10;;;17.10;99.90;;;;;;5071635;28;20418;-53
2023/08/03 04:41:20;;;;;;;1.10;0.70;;;17.10;99.90;;;;;;5070221;28;20024;-53
2023/08/03 04:43:46;;;;;;;3.78;0.90;;;17.20;99.90;;;;;;5070113;28;20028;-49
2023/08/03 04:46:12;;;;;;;2.80;0.90;;;17.20;99.90;;;;;;5070141;28;20086;-50
2023/08/03 04:48:39;;;;;;;2.42;0.90;;;17.20;99.90;;;;;;5070267;28;20024;-53
2023/08/03 04:51:07;;;;;;;4.07;1.55;;;17.20;99.90;;;;;;5070116;28;20033;-51
2023/08/03 04:53:32;;;;;;;4.32;1.20;;;17.10;99.90;;;;;;5069916;28;20048;-51
2023/08/03 04:55:58;;;;;;;2.20;0.90;;;17.10;99.90;;;;;;5070094;28;20032;-50
2023/08/03 04:58:24;;;;;;;3.15;1.70;;;17.10;99.90;;;;;;5070184;28;20093;-51
2023/08/03 05:00:50;;;;;;;9.88;3.28;;;17.10;99.90;;;;;;5070219;28;20111;-50
2023/08/03 05:03:16;;;;;;;5.90;1.90;;;17.10;99.90;;;;;;5071204;28;20572;-55
2023/08/03 05:05:43;;;;;;;4.88;1.90;;;17.10;99.90;;;;;;5069893;28;20116;-51
2023/08/03 05:08:12;;;;;;;;;;;17.00;99.90;;;;;;5070533;28;20028;-53
2023/08/03 05:10:37;;;;;;;4.75;1.20;;;17.00;99.90;;;;;;5069885;28;20053;-48
2023/08/03 05:13:03;;;;;;;4.13;1.02;;;16.90;99.90;;;;;;5069669;28;20035;-50
2023/08/03 05:15:28;;;;;;;2.10;0.82;;;16.90;99.90;;;;;;5069716;28;20275;-53
2023/08/03 05:17:54;;;;;;;2.95;1.20;;;16.80;99.90;;;;;;5069633;28;20024;-53
2023/08/03 05:20:20;;;;;;;3.45;0.90;;;16.80;99.90;;;;;;5070891;28;20241;-52
2023/08/03 05:22:45;;;;;;;3.28;1.10;;;16.80;99.90;;;;;;5069655;28;20037;-48
2023/08/03 05:25:11;;;;;;;1.85;0.82;;;16.80;99.90;;;;;;5070807;28;20032;-50
2023/08/03 05:27:37;;;;;;;1.88;0.95;;;16.80;99.90;;;;;;5070747;28;20494;-53
2023/08/03 05:30:03;;;;;;;2.05;0.90;;;16.80;99.90;;;;;;5070807;28;20036;-50
2023/08/03 05:32:28;;;;;;;1.88;0.70;;;16.90;99.90;;;;;;5069922;28;20466;-48
2023/08/03 05:34:54;;;;;;;3.15;0.70;;;16.90;99.90;;;;;;5070475;28;20043;-52
2023/08/03 05:37:20;;;;;;;1.52;0.60;;;16.90;99.90;;;;;;5070662;28;20103;-52
2023/08/03 05:39:45;;;;;;;3.58;1.10;;;16.90;99.90;;;;;;5052705;28;20108;-53
2023/08/03 05:42:12;;;;;;;1.92;1.23;;;16.90;99.90;;;;;;5070416;28;20373;-48
2023/08/03 05:44:38;;;;;;;3.03;0.70;;;17.00;99.90;;;;;;5070490;28;20029;-52
2023/08/03 05:47:08;;;;;;;3.45;0.95;;;17.00;99.90;;;;;;5069146;28;20082;-53
2023/08/03 05:49:34;;;;;;;5.60;0.88;;;17.00;99.90;;;;;;5070813;28;20097;-50
2023/08/03 05:52:00;;;;;;;2.40;1.20;;;17.00;99.90;;;;;;5070549;28;20611;-49
2023/08/03 05:54:25;;;;;;;3.15;1.83;;;17.10;99.90;;;;;;5070323;28;20025;-51
2023/08/03 05:56:51;;;;;;;4.25;1.50;;;17.10;99.90;;;;;;5070566;28;20073;-52
2023/08/03 05:59:22;;;;;;;2.08;1.30;;;17.10;99.90;;;;;;5070427;28;20381;-52
2023/08/03 06:01:49;;;;;;;3.35;1.40;;;17.10;99.90;;;;;;5070172;28;20038;-50
2023/08/03 06:04:16;;;;;;;3.50;1.35;;;17.10;99.90;;;;;;5070050;28;20028;-51
2023/08/03 06:06:42;;;;;;;2.00;1.10;;;17.00;99.90;;;;;;5070256;28;20370;-50
2023/08/03 06:09:11;;;;;;;4.90;1.65;;;17.00;99.90;;;;;;5070279;28;20035;-50
2023/08/03 06:11:37;;;;;;;6.50;2.25;;;17.00;99.90;;;;;;5070127;28;20036;-50
2023/08/03 06:14:04;;;;;;;6.10;2.67;;;16.80;99.90;;;;;;5070661;28;20476;-52
2023/08/03 06:16:30;;;;;;;4.45;2.10;;;16.60;99.90;;;;;;5070006;28;20418;-52
2023/08/03 06:18:59;;;;;;;5.20;1.63;;;16.50;99.90;;;;;;5068852;28;20027;-52
2023/08/03 06:21:26;;;;;;;;;;;16.40;99.90;;;;;;5070612;28;20032;-53
2023/08/03 06:23:57;;;;;;;3.75;1.35;;;16.30;99.90;;;;;;5070254;28;19908;-52
2023/08/03 06:26:24;;;;;;;4.57;1.60;;;16.30;99.90;;;;;;5070088;28;20485;-50
2023/08/03 06:28:53;;;;;;;4.15;1.95;;;16.20;99.90;;;;;;5068908;28;20485;-53
2023/08/03 06:31:22;;;;;;;5.57;2.22;;;16.20;99.90;;;;;;5069991;28;20103;-51
2023/08/03 06:33:48;;;;;;;7.72;2.45;;;16.10;99.90;;;;;;5070003;28;20024;-48
2023/08/03 06:36:20;;;;;;;13.00;5.57;;;16.20;99.90;;;;;;5070065;28;20497;-47
2023/08/03 06:38:46;;;;;;;8.43;3.55;;;16.20;99.90;;;;;;5070094;28;20115;-52
2023/08/03 06:41:12;;;;;;;14.45;6.32;;;16.20;99.90;;;;;;5070070;28;20378;-48
2023/08/03 06:43:38;;;;;;;3.75;1.77;;;16.20;99.90;;;;;;5070457;28;20035;-49
2023/08/03 06:46:04;;;;;;;2.67;0.82;;;16.10;99.90;;;;;;5072257;28;20097;-52
2023/08/03 06:48:32;;;;;;;2.70;1.33;;;16.10;99.90;;;;;;5073707;28;20082;-51
2023/08/03 06:50:57;;;;;;;2.03;0.88;;;16.10;99.90;;;;;;5073607;28;20024;-53
2023/08/03 06:53:23;;;;;;;2.20;1.17;;;16.10;99.90;;;;;;5073370;28;20442;-52
2023/08/03 06:55:49;;;;;;;3.53;1.67;;;16.10;99.90;;;;;;5073345;28;20033;-54
2023/08/03 06:58:17;;;;;;;3.10;1.67;;;16.10;99.90;;;;;;5073835;28;20242;-53
2023/08/03 07:00:44;;;;;;;5.22;1.40;;;16.10;99.90;;;;;;5073597;28;20071;-48
2023/08/03 07:03:10;;;;;;;2.35;1.23;;;16.10;99.90;;;;;;5073227;28;20028;-53
2023/08/03 07:05:36;;;;;;;2.45;0.80;;;16.20;99.90;;;;;;5073199;28;20111;-49
2023/08/03 07:08:01;;;;;;;1.77;0.85;;;16.20;99.90;;;;;;5073537;28;20115;-53
2023/08/03 07:10:27;;;;;;;2.10;0.88;;;16.20;99.90;;;;;;5071784;28;20112;-49
2023/08/03 07:12:53;;;;;;;1.70;0.80;;;16.30;99.90;;;;;;5073065;28;20033;-53
2023/08/03 07:15:19;;;;;;;3.20;1.27;;;16.30;99.90;;;;;;5073067;28;20522;-51
2023/08/03 07:17:45;;;;;;;3.55;1.48;;;16.40;99.90;;;;;;5073227;28;20052;-52
2023/08/03 07:20:11;;;;;;;3.13;1.30;;;16.50;99.90;;;;;;5073258;28;20032;-51
2023/08/03 07:22:36;;;;;;;3.95;1.25;;;16.50;99.90;;;;;;5072842;28;20040;-52
2023/08/03 07:25:03;;;;;;;1.75;0.75;;;16.50;99.90;;;;;;5072830;28;20024;-51
2023/08/03 07:27:29;;;;;;;3.55;1.27;;;16.60;99.90;;;;;;5073021;28;20178;-51
2023/08/03 07:29:54;;;;;;;1.95;0.93;;;16.60;99.90;;;;;;5072917;28;20107;-51
2023/08/03 07:32:20;;;;;;;1.02;0.70;;;16.60;99.90;;;;;;5072947;28;20556;-47
2023/08/03 07:34:46;;;;;;;2.20;0.65;;;16.60;99.90;;;;;;5072743;28;20075;-52
2023/08/03 07:37:11;;;;;;;4.47;1.42;;;16.60;99.90;;;;;;5072873;28;20036;-52
2023/08/03 07:39:37;;;;;;;1.60;0.90;;;16.60;99.90;;;;;;5072726;28;20377;-50
2023/08/03 07:42:03;;;;;;;2.30;1.08;;;16.70;99.90;;;;;;5072612;28;20469;-51
2023/08/03 07:44:28;;;;;;;1.63;1.10;;;16.70;99.90;;;;;;5072445;28;20027;-52
2023/08/03 07:46:54;;;;;;;3.35;1.00;;;16.80;99.90;;;;;;5072774;28;20477;-52
2023/08/03 07:49:20;;;;;;;3.28;1.42;;;16.80;99.90;;;;;;5072767;28;20054;-56
2023/08/03 07:51:47;;;;;;;1.98;1.10;;;16.90;99.90;;;;;;5072984;28;20153;-50
2023/08/03 07:54:13;;;;;;;5.25;1.70;;;16.90;99.90;;;;;;5072772;28;20029;-52
2023/08/03 07:56:39;;;;;;;2.58;1.20;;;16.90;99.90;;;;;;5071961;28;20401;-52
2023/08/03 07:59:05;;;;;;;1.98;1.10;;;17.00;99.90;;;;;;5071275;28;20028;-52
2023/08/03 08:01:31;;;;;;;1.60;0.98;;;17.20;99.90;;;;;;5072386;28;20576;-53
2023/08/03 08:03:57;;;;;;;15.55;7.97;;;17.20;99.90;;;;;;5072365;28;20113;-52
2023/08/03 08:06:22;;;;;;;29.67;14.90;;;17.30;99.90;;;;;;5072735;28;20469;-50
2023/08/03 08:08:50;;;;;;;16.85;9.73;;;17.30;99.90;;;;;;5072432;28;20085;-49
2023/08/03 08:11:17;;;;;;;3.25;1.75;;;17.40;99.90;;;;;;5071117;28;20390;-50
2023/08/03 08:13:43;;;;;;;3.97;1.63;;;17.50;99.90;;;;;;5072156;28;20089;-54
2023/08/03 08:16:11;;;;;;;7.32;3.33;;;17.50;99.90;;;;;;5072302;28;20028;-49
2023/08/03 08:18:37;;;;;;;3.88;1.20;;;17.60;99.90;;;;;;5072338;28;20504;-50
2023/08/03 08:21:08;;;;;;;2.63;1.33;;;17.60;99.90;;;;;;5072273;28;20384;-51
2023/08/03 08:23:35;;;;;;;3.33;1.40;;;17.50;99.90;;;;;;5071855;28;20036;-54
2023/08/03 08:26:00;;;;;;;4.00;1.48;;;17.60;99.90;;;;;;5072000;28;20597;-53
2023/08/03 08:28:28;;;;;;;4.00;1.38;;;17.60;99.90;;;;;;5070635;28;20067;-54
2023/08/03 08:30:53;;;;;;;4.25;1.55;;;17.60;99.90;;;;;;5071830;28;20059;-54
2023/08/03 08:33:20;;;;;;;6.55;2.55;;;17.60;99.90;;;;;;5071519;28;20029;-52
2023/08/03 08:35:48;;;;;;;5.63;1.75;;;17.60;99.90;;;;;;5071400;28;20036;-51
2023/08/03 08:38:15;;;;;;;5.32;1.70;;;17.60;99.90;;;;;;5071639;28;20035;-52
2023/08/03 08:40:42;;;;;;;4.85;1.85;;;17.60;99.90;;;;;;5070190;28;20063;-52
2023/08/03 08:43:08;;;;;;;5.15;2.00;;;17.60;99.90;;;;;;5071260;28;20078;-53
2023/08/03 08:45:36;;;;;;;4.32;2.05;;;17.60;99.90;;;;;;5071235;28;20476;-52
2023/08/03 08:48:02;;;;;;;7.47;2.28;;;17.70;99.90;;;;;;5071396;28;20032;-53
2023/08/03 08:50:28;;;;;;;7.25;2.08;;;17.70;99.90;;;;;;5071143;28;20039;-53
2023/08/03 08:52:56;;;;;;;5.22;1.70;;;17.90;99.90;;;;;;5071154;28;20067;-53
2023/08/03 08:55:24;;;;;;;4.60;1.67;;;18.00;99.90;;;;;;5071129;28;20049;-53
2023/08/03 08:57:51;;;;;;;4.93;1.75;;;18.10;99.90;;;;;;5071246;28;20025;-52
2023/08/03 09:00:17;;;;;;;4.60;1.30;;;18.10;99.90;;;;;;5071168;28;20065;-53
2023/08/03 09:02:43;;;;;;;3.45;1.48;;;18.00;99.90;;;;;;5071057;28;20054;-54
2023/08/03 09:05:20;;;;;;;4.07;1.58;;;18.00;99.90;;;;;;5070817;28;20058;-54
2023/08/03 09:07:59;;;;;;;3.20;1.40;;;18.00;99.90;;;;;;5070350;28;20546;-53
2023/08/03 09:10:25;;;;;;;2.45;1.10;;;18.00;99.90;;;;;;5070965;28;20029;-53
2023/08/03 09:12:51;;;;;;;2.80;1.40;;;17.90;99.90;;;;;;5070585;28;20062;-52
2023/08/03 09:15:16;;;;;;;2.67;1.33;;;17.90;99.90;;;;;;5070758;28;20032;-52
2023/08/03 09:17:46;;;;;;;3.03;1.23;;;17.90;99.90;;;;;;5070887;28;20028;-52
2023/08/03 09:20:28;;;;;;;2.28;1.10;;;17.90;99.90;;;;;;5071334;28;20043;-53
2023/08/03 09:22:53;;;;;;;2.85;1.00;;;18.00;99.90;;;;;;5070545;28;20473;-49
2023/08/03 09:25:19;;;;;;;2.20;1.15;;;18.10;99.90;;;;;;5070689;28;20032;-54
2023/08/03 09:27:54;;;;;;;3.28;0.88;;;18.10;99.90;;;;;;5070700;28;20127;-53
2023/08/03 09:30:20;;;;;;;2.70;1.40;;;18.20;99.90;;;;;;5070700;28;20032;-52
2023/08/03 09:32:46;;;;;;;2.53;1.33;;;18.20;99.90;;;;;;5070686;28;20039;-52
2023/08/03 09:35:23;;;;;;;3.63;0.95;;;18.20;99.90;;;;;;5070502;28;20024;-53
2023/08/03 09:37:51;;;;;;;4.25;1.90;;;18.20;99.90;;;;;;5070777;28;20032;-54
2023/08/03 09:40:19;;;;;;;2.28;0.90;;;18.10;99.90;;;;;;5070545;28;20040;-51
2023/08/03 09:42:47;;;;;;;1.52;1.02;;;18.10;99.90;;;;;;5070408;28;20055;-52
2023/08/03 09:45:13;;;;;;;2.45;1.05;;;18.10;99.90;;;;;;5070372;28;20028;-53
2023/08/03 09:47:39;;;;;;;5.18;1.23;;;18.10;99.90;;;;;;5070658;28;20039;-52
2023/08/03 09:50:09;;;;;;;1.73;1.02;;;18.10;99.90;;;;;;5070568;28;20055;-54
2023/08/03 09:52:49;;;;;;;3.67;1.00;;;18.10;99.90;;;;;;5069029;28;20079;-54
2023/08/03 09:55:22;;;;;;;4.60;1.00;;;18.10;99.90;;;;;;5070288;28;20025;-54
2023/08/03 09:58:02;;;;;;;0.85;0.73;;;18.20;99.90;;;;;;5069219;28;20493;-52
2023/08/03 10:00:29;;;;;;;2.33;1.08;;;18.20;99.90;;;;;;5070557;28;20090;-52
2023/08/03 10:03:09;;;;;;;5.70;1.17;;;18.20;99.90;;;;;;5070356;28;20031;-54
2023/08/03 10:05:50;;;;;;;1.42;1.10;;;18.10;99.90;;;;;;5068856;28;20062;-53
2023/08/03 10:08:27;;;;;;;1.65;0.90;;;18.20;99.90;;;;;;5070470;28;20101;-54
2023/08/03 10:11:00;;;;;;;1.75;0.93;;;18.20;99.90;;;;;;5070507;28;20035;-53
2023/08/03 10:13:27;;;;;;;2.72;1.08;;;18.30;99.90;;;;;;5070112;28;20024;-51
2023/08/03 10:15:54;;;;;;;2.35;1.02;;;18.30;99.90;;;;;;5070034;28;20040;-51
2023/08/03 10:18:20;;;;;;;3.92;1.13;;;18.30;99.90;;;;;;5070609;28;20180;-51
2023/08/03 10:20:47;;;;;;;2.65;1.00;;;18.20;99.90;;;;;;5074286;28;20028;-54
2023/08/03 10:23:22;;;;;;;1.20;0.90;;;18.30;99.90;;;;;;5074117;28;20032;-51
2023/08/03 10:25:58;;;;;;;3.80;1.35;;;18.30;99.90;;;;;;5074147;28;20302;-54
2023/08/03 10:28:40;;;;;;;2.42;1.27;;;18.30;99.90;;;;;;5073940;28;20046;-54
2023/08/03 10:31:18;;;;;;;2.42;1.35;;;18.40;99.90;;;;;;5074111;28;20025;-49
2023/08/03 10:33:47;;;;;;;3.78;1.05;;;18.40;99.90;;;;;;5073982;28;20374;-51
2023/08/03 10:36:28;;;;;;;3.75;1.17;;;18.50;99.90;;;;;;5073918;28;20491;-50
2023/08/03 10:38:55;;;;;;;4.53;1.10;;;18.50;99.90;;;;;;5074383;28;20131;-51
2023/08/03 10:41:22;;;;;;;1.55;1.00;;;18.50;99.90;;;;;;5073725;28;20056;-52
2023/08/03 10:44:09;;;;;;;2.13;0.95;;;18.50;99.90;;;;;;5073759;28;20035;-53
2023/08/03 10:46:36;;;;;;;3.42;0.95;;;18.50;99.90;;;;;;5073537;28;20044;-53
2023/08/03 10:49:23;;;;;;;0.82;0.80;;;18.50;99.90;;;;;;5073705;28;20031;-53
2023/08/03 10:52:13;;;;;;;3.08;1.10;;;18.30;99.90;;;;;;5073643;28;20056;-53
2023/08/03 10:54:39;;;;;;;2.25;1.13;;;18.20;99.90;;;;;;5073356;28;20384;-52
2023/08/03 10:57:07;;;;;;;2.15;1.00;;;18.20;99.90;;;;;;5073593;28;20029;-49
2023/08/03 10:59:40;;;;;;;3.15;1.20;;;18.20;99.90;;;;;;5073455;28;20104;-50
2023/08/03 11:02:18;;;;;;;2.47;1.08;;;18.20;99.90;;;;;;5073425;28;20067;-53
2023/08/03 11:04:44;;;;;;;5.05;1.10;;;18.30;99.90;;;;;;5073429;28;20033;-49
2023/08/03 11:07:11;;;;;;;2.75;0.95;;;18.30;99.90;;;;;;5073412;28;20214;-50
2023/08/03 11:09:37;;;;;;;2.88;1.13;;;18.40;99.90;;;;;;5073401;28;20499;-52
2023/08/03 11:12:05;;;;;;;3.83;1.20;;;18.50;99.90;;;;;;5073033;28;20029;-50
2023/08/03 11:14:31;;;;;;;2.58;0.98;;;18.40;99.90;;;;;;5072931;28;20064;-50
2023/08/03 11:16:57;;;;;;;2.83;1.10;;;18.40;99.90;;;;;;5073527;28;20024;-50
2023/08/03 11:19:23;;;;;;;2.95;1.00;;;18.40;99.90;;;;;;5073468;28;20040;-50
2023/08/03 11:21:48;;;;;;;1.42;0.80;;;18.40;99.90;;;;;;5073425;28;20025;-50
2023/08/03 11:24:14;;;;;;;3.42;1.10;;;18.30;99.90;;;;;;5073221;28;20504;-50
2023/08/03 11:26:41;;;;;;;1.77;0.90;;;18.40;99.90;;;;;;5073220;28;20186;-50
2023/08/03 11:29:07;;;;;;;2.97;1.23;;;18.40;99.90;;;;;;5073182;28;20086;-49
2023/08/03 11:31:33;;;;;;;1.38;1.00;;;18.40;99.90;;;;;;5070728;28;20027;-52
2023/08/03 11:33:59;;;;;;;4.45;1.33;;;18.50;99.90;;;;;;5072846;28;20029;-54
2023/08/03 11:36:24;;;;;;;2.72;1.10;;;18.50;99.90;;;;;;5072687;28;20025;-54
2023/08/03 11:38:52;;;;;;;3.22;1.20;;;18.50;99.90;;;;;;5072785;28;20103;-54
2023/08/03 11:41:20;;;;;;;4.18;1.05;;;18.50;99.90;;;;;;5072667;28;20118;-51
2023/08/03 11:43:49;;;;;;;2.40;1.08;;;18.60;99.90;;;;;;5072636;28;20477;-53
2023/08/03 11:46:19;;;;;;;1.30;0.90;;;18.70;99.90;;;;;;5072447;28;20047;-53
2023/08/03 11:48:45;;;;;;;2.72;1.00;;;18.70;99.90;;;;;;5072765;28;20050;-53
2023/08/03 11:51:11;;;;;;;2.15;1.00;;;18.90;99.90;;;;;;5072517;28;20397;-53
2023/08/03 11:53:38;;;;;;;3.92;1.40;;;19.00;99.90;;;;;;5072176;28;20029;-52
2023/08/03 11:56:04;;;;;;;3.88;1.30;;;19.00;99.90;;;;;;5071237;28;20039;-54
2023/08/03 11:58:30;;;;;;;8.73;2.85;;;19.00;99.90;;;;;;5070957;28;20025;-53
2023/08/03 12:01:03;;;;;;;1.88;1.20;;;18.90;99.90;;;;;;5072212;28;20443;-52
2023/08/03 12:03:37;;;;;;;2.03;1.23;;;18.90;99.90;;;;;;5071899;28;20128;-53
2023/08/03 12:06:05;;;;;;;1.40;0.90;;;18.90;99.90;;;;;;5071968;28;20374;-54
2023/08/03 12:08:41;;;;;;;5.03;1.90;;;18.90;99.90;;;;;;5072096;28;20123;-52
2023/08/03 12:11:06;;;;;;;2.85;1.30;;;18.90;99.90;;;;;;5070761;28;20374;-54
2023/08/03 12:13:32;;;;;;;2.42;1.17;;;19.00;99.90;;;;;;5071755;28;20035;-53
2023/08/03 12:15:58;;;;;;;2.35;1.13;;;19.00;99.90;;;;;;5071803;28;20025;-53
2023/08/03 12:18:25;;;;;;;3.88;1.05;;;19.10;99.90;;;;;;5071903;28;20111;-53
2023/08/03 12:20:50;;;;;;;1.35;0.80;;;19.20;99.90;;;;;;5071767;28;20033;-51
2023/08/03 12:23:21;;;;;;;2.08;0.93;;;19.20;99.90;;;;;;5071624;28;20305;-53
2023/08/03 12:25:47;;;;;;;1.50;0.82;;;19.20;99.90;;;;;;5071722;28;20021;-52
2023/08/03 12:28:13;;;;;;;2.70;1.10;;;19.20;99.90;;;;;;5071785;28;20119;-53
2023/08/03 12:30:39;;;;;;;2.53;0.93;;;19.20;99.90;;;;;;5071598;28;20077;-54
2023/08/03 12:33:06;;;;;;;1.65;0.90;;;19.30;99.90;;;;;;5071446;28;20410;-51
2023/08/03 12:35:32;;;;;;;1.42;0.80;;;19.40;99.90;;;;;;5071315;28;20021;-53
2023/08/03 12:37:57;;;;;;;1.98;0.90;;;19.30;99.90;;;;;;5071605;28;20519;-50
2023/08/03 12:40:23;;;;;;;1.23;0.80;;;19.30;99.90;;;;;;5071617;28;20098;-52
2023/08/03 12:42:48;;;;;;;3.08;1.00;;;19.20;99.90;;;;;;5071116;28;20107;-53
2023/08/03 12:45:14;;;;;;;1.88;1.10;;;19.20;99.90;;;;;;5071292;28;20025;-49
2023/08/03 12:47:40;;;;;;;3.63;1.27;;;19.20;99.90;;;;;;5071528;28;20389;-52